Main page
METAR-TAF:

METAR-TAF

Airports :

Cognac – Châteaubernard Air Base

Cognac, France

latitude: 45-40N, longitude: 000-19W, elevation: 30 m

Current weather observation

The report was made 22 minutes ago, at 20:30 UTC
Wind 4 kt from the North
Temperature 2°C
Humidity 75%
Pressure 1036 hPa
Visibility 10 km or more
no clouds below 1500 m and no cumulonimbus

METAR: LFBG 212030Z AUTO 36004KT CAVOK 02/M02 Q1036

Time: 21:52 (20:52 UTC)

Forecast

The report was made 6 hours and 52 minutes ago, at 14:00 UTC
Forecast valid from 21 at 15 UTC to 22 at 15 UTC
Wind 12 kt from the North/Northeast
Visibility 10 km or more
Few clouds at a height of 3000 ft
Temporary
from 21 at 15 UTC to 21 at 17 UTC
Wind 15 kt from the North/Northeast with gusts up to 25 kt
Becoming
from 22 at 00 UTC to 22 at 02 UTC
Broken clouds at a height of 1400 ft
Becoming
from 22 at 12 UTC to 22 at 14 UTC
Scattered clouds at a height of 2000 ft

TAF: LFBG 211400Z 2115/2215 03012KT 9999 FEW030 TEMPO 2115/2117 03015G25KT BECMG 2200/2202 BKN014 BECMG 2212/2214 SCT020

Weather observations and forecasts of more than 4000 airports (METAR and TAF reports).

The available stations are represented by yellow and red dots on the map.

Hover mouse over dot to see the name of the station.

Then click to see weather observations and forecasts.

To change the map : click on the green buttons with a black cross to zoom in, on the green button with a dash to zoom out, or on the green arrows for adjacent maps.


METAR-TAF: